Huvudsida
METAR-TAF:

METAR-TAF

Flygplatser :

Locarnos flygplats

Locarno, Schweiz

latitud: 46-09-55N, longitud: 8-52-40E, höjd: 198 m

Aktuellt väderrapport

Denna rapport gjordes för 37 minuter sedan, klockan 13:50 UTC
Vind 6 kt från väst/sydväst
Temperatur 17°C
Fuktighet 48%
Tryck 1010 hPa
Sikt 10 km eller mer
Få moln på en höjd av 12000 ft

METAR: LSZL 291350Z AUTO 25006KT 9999NDV FEW120 17/06 Q1010 RMK

Tid: 16:27 (14:27 UTC)


TAF: saknas

Aktuella väderrapporter och prognoser från 4000 flygplatser (METAR- och TAF-rapporter).

De tillgängliga stationerna syns som gula och röda prickar på kartan.

För musen över prickarna för att se namnen på stationerna.

Klicka sedan för att få väderrapporter och prognoser.

För att ändra kartan: Klicka på de gröna knapparna med ett svart kors på för att zooma in; den gröna knappen med ett streck på för att zooma ut; eller på de gröna pilarna för angränsande kartor.


METAR-TAF: